Port Mellon, Canada
Current Conditions -  °F | °C
As of 10:00 AM on Saturday 25 Oct 2014 (Local Time) from CYVR Reporting Station
Light Rain Light Rain  
Wind Chill: 44°   Ceiling: 7300
Heat Index: 48°   Visibility: 10mi
Dew Point: 46°   Wind: 9mph
Humidity: 93%   Direction: 40°NE
Pressure: 29.49"   Gusts: NA
Location:  49.52°N, 123.48°W
Report Text: CYVR 251700Z 04008KT 10SM -RA FEW011 SCT045 OVC073 09/08 A2949 RMK SF2SC2AC4 PRESFR SLP987
Loading
Personal Weather Stations






























Interactive Weather Map New forecast layout! Learn more

10-Day Weather Forecast

Advertisements
Track Severe Weather on mobile